VVI weather

Viru Viru International Airport
Santa Cruz, Santa Cruz Department, Bolivia

Public forecast

Using degrees Celsius for public forecast. Weather courtesy of forecast.io.

METAR (pilot weather report)

Retrieved 2019/09/22 17:00 UTC (27 minutes ago):

SLVR 221700Z 18014G26KT 9999 NSC 30/09 Q1018

TAF (pilot weather forecast)

Retrieved 2019/09/22 12:35 UTC (5 hours ago):

TAF SLVR 221000Z 2212/2312 18015G25KT 9999 SCT023 BKN080 TX30/2220Z TN21/2311Z BECMG 2221/2223 17012G22KT NSC